createdAt,value
2022-08-23T00:02:12.851Z,100389.34
2022-08-23T00:05:00.095Z,100383.16
2022-08-23T00:07:39.630Z,100378.69
2022-08-23T00:10:10.614Z,100379.56
2022-08-23T00:12:38.502Z,100378.41
2022-08-23T00:15:08.856Z,100373.28
2022-08-23T00:17:36.995Z,100384.97
2022-08-23T00:20:11.858Z,100374.72
2022-08-23T00:22:40.016Z,100382.72
2022-08-23T00:25:11.157Z,100379.63
2022-08-23T00:27:38.999Z,100375.94
2022-08-23T00:30:10.822Z,100374.28
2022-08-23T00:32:39.726Z,100374.91
2022-08-23T00:35:09.396Z,100374.72
2022-08-23T00:37:37.258Z,100368.59
2022-08-23T00:40:11.376Z,100367.75
2022-08-23T00:43:10.397Z,100371.31
2022-08-23T00:46:53.543Z,100369.69
2022-08-23T00:49:22.330Z,100360.06
2022-08-23T00:52:04.115Z,100369.50
2022-08-23T00:54:32.376Z,100367.47
2022-08-23T00:57:05.561Z,100367.25
2022-08-23T00:59:33.486Z,100373.19
2022-08-23T01:02:01.401Z,100369.91
2022-08-23T01:04:34.483Z,100379.19
2022-08-23T01:07:23.708Z,100375.50
2022-08-23T01:09:56.554Z,100382.88
2022-08-23T01:12:40.379Z,100390.69
2022-08-23T01:15:18.792Z,100388.41
2022-08-23T01:17:57.540Z,100388.81
2022-08-23T01:20:27.074Z,100393.75
2022-08-23T01:23:08.309Z,100399.31
2022-08-23T01:25:37.260Z,100396.25
2022-08-23T01:28:04.673Z,100399.09
2022-08-23T01:30:34.056Z,100398.47
2022-08-23T01:33:05.049Z,100405.06
2022-08-23T01:35:41.727Z,100406.28
2022-08-23T01:38:10.240Z,100409.53
2022-08-23T01:40:38.508Z,100406.84
2022-08-23T01:43:07.326Z,100403.94
2022-08-23T01:45:35.611Z,100409.88
2022-08-23T01:48:03.116Z,100405.94
2022-08-23T01:50:31.610Z,100402.69
2022-08-23T01:52:59.807Z,100404.50
2022-08-23T01:55:27.245Z,100394.63
2022-08-23T01:57:58.891Z,100397.28
2022-08-23T02:00:40.915Z,100401.56
2022-08-23T02:03:09.425Z,100405.19
2022-08-23T02:05:37.301Z,100400.19
2022-08-23T02:08:25.478Z,100408.84
2022-08-23T02:10:53.450Z,100404.06
2022-08-23T02:13:20.758Z,100405.47
2022-08-23T02:15:51.466Z,100409.13
2022-08-23T02:18:21.067Z,100418.56
2022-08-23T02:20:51.965Z,100414.66
2022-08-23T02:23:21.148Z,100418.56
2022-08-23T02:25:48.608Z,100423.63
2022-08-23T02:28:15.530Z,100417.09
2022-08-23T02:30:45.509Z,100414.41
2022-08-23T02:33:14.617Z,100415.81
2022-08-23T02:35:43.542Z,100412.50
2022-08-23T02:38:13.222Z,100413.91
2022-08-23T02:40:42.276Z,100416.72
2022-08-23T02:43:10.611Z,100421.25
2022-08-23T02:45:37.975Z,100425.31
2022-08-23T02:48:06.935Z,100427.09
2022-08-23T02:50:34.854Z,100437.75
2022-08-23T02:53:01.878Z,100437.22
2022-08-23T02:55:29.075Z,100435.66
2022-08-23T02:57:56.042Z,100433.41
2022-08-23T03:00:23.323Z,100433.44
2022-08-23T03:02:50.384Z,100433.22
2022-08-23T03:05:17.794Z,100434.47
2022-08-23T03:07:45.351Z,100432.81
2022-08-23T03:10:12.766Z,100434.22
2022-08-23T03:12:39.946Z,100437.69
2022-08-23T03:15:08.171Z,100437.91
2022-08-23T03:17:35.330Z,100443.84
2022-08-23T03:20:02.384Z,100449.03
2022-08-23T03:22:29.322Z,100443.44
2022-08-23T03:24:57.257Z,100451.25
2022-08-23T03:27:24.273Z,100443.66
2022-08-23T03:29:51.152Z,100443.38
2022-08-23T03:32:18.059Z,100445.25
2022-08-23T03:34:46.021Z,100438.28
2022-08-23T03:37:13.065Z,100445.63
2022-08-23T03:39:40.301Z,100439.97
2022-08-23T03:42:08.545Z,100448.28
2022-08-23T03:44:35.792Z,100454.34
2022-08-23T03:47:02.986Z,100455.25
2022-08-23T03:49:29.949Z,100448.91
2022-08-23T03:51:56.872Z,100455.63
2022-08-23T03:54:23.994Z,100470.94
2022-08-23T03:57:00.362Z,100465.34
2022-08-23T03:59:28.707Z,100470.38
2022-08-23T04:01:56.337Z,100471.56
2022-08-23T04:04:23.374Z,100466.69
2022-08-23T04:06:50.279Z,100470.38
2022-08-23T04:09:17.714Z,100478.78
2022-08-23T04:11:45.242Z,100485.13
2022-08-23T04:14:13.179Z,100479.81
2022-08-23T04:16:40.650Z,100483.03
2022-08-23T04:19:13.087Z,100490.78
2022-08-23T04:21:47.975Z,100491.28
2022-08-23T04:24:17.169Z,100492.47
2022-08-23T04:26:44.062Z,100490.00
2022-08-23T04:29:22.954Z,100491.91
2022-08-23T04:32:05.289Z,100495.53
2022-08-23T04:34:36.396Z,100493.06
2022-08-23T04:37:03.424Z,100495.78
2022-08-23T04:39:57.885Z,100506.22
2022-08-23T04:42:25.106Z,100503.81
2022-08-23T04:44:52.143Z,100506.50
2022-08-23T04:47:20.322Z,100512.28
2022-08-23T04:49:47.215Z,100519.13
2022-08-23T04:52:19.066Z,100516.53
2022-08-23T04:54:46.829Z,100523.06
2022-08-23T04:57:15.403Z,100523.50
2022-08-23T04:59:42.822Z,100517.72
2022-08-23T05:02:09.841Z,100521.31
2022-08-23T05:04:36.686Z,100527.06
2022-08-23T05:07:04.078Z,100534.75
2022-08-23T05:09:30.962Z,100540.31
2022-08-23T05:11:58.000Z,100543.50
2022-08-23T05:14:25.043Z,100537.56
2022-08-23T05:16:51.886Z,100539.13
2022-08-23T05:19:19.065Z,100545.81
2022-08-23T05:21:46.387Z,100547.59
2022-08-23T05:24:13.851Z,100544.97
2022-08-23T05:26:41.265Z,100557.38
2022-08-23T05:29:08.181Z,100547.72
2022-08-23T05:31:35.137Z,100556.97
2022-08-23T05:34:02.266Z,100558.75
2022-08-23T05:36:29.191Z,100567.25
2022-08-23T05:38:56.264Z,100570.53
2022-08-23T05:41:27.233Z,100571.31
2022-08-23T05:44:04.958Z,100569.69
2022-08-23T05:46:31.830Z,100573.72
2022-08-23T05:48:58.733Z,100581.97
2022-08-23T05:51:33.524Z,100585.16
2022-08-23T05:54:04.925Z,100580.78
2022-08-23T05:56:36.510Z,100591.09
2022-08-23T05:59:12.540Z,100596.13
2022-08-23T06:01:41.431Z,100593.63
2022-08-23T06:04:12.436Z,100597.91
2022-08-23T06:06:41.562Z,100596.94
2022-08-23T06:09:12.473Z,100595.19
2022-08-23T06:11:39.631Z,100595.28
2022-08-23T06:14:08.931Z,100599.09
2022-08-23T06:16:43.716Z,100608.41
2022-08-23T06:19:11.960Z,100605.75
2022-08-23T06:21:39.385Z,100608.72
2022-08-23T06:24:07.203Z,100600.78
2022-08-23T06:26:42.756Z,100612.63
2022-08-23T06:29:14.723Z,100620.25
2022-08-23T06:31:48.587Z,100617.19
2022-08-23T06:34:25.143Z,100615.09
2022-08-23T06:36:58.498Z,100618.19
2022-08-23T06:39:28.471Z,100614.41
2022-08-23T06:42:34.795Z,100617.38
2022-08-23T06:44:58.515Z,100620.69
2022-08-23T06:47:25.510Z,100630.50
2022-08-23T06:49:58.124Z,100628.66
2022-08-23T06:52:27.508Z,100632.72
2022-08-23T06:54:55.035Z,100634.19
2022-08-23T06:57:21.965Z,100624.13
2022-08-23T06:59:49.928Z,100637.88
2022-08-23T07:02:16.944Z,100631.28
2022-08-23T07:04:44.019Z,100627.22
2022-08-23T07:07:12.077Z,100628.59
2022-08-23T07:09:40.341Z,100632.53
2022-08-23T07:12:07.743Z,100633.03
2022-08-23T07:14:36.807Z,100630.69
2022-08-23T07:17:04.164Z,100634.97
2022-08-23T07:19:34.610Z,100639.72
2022-08-23T07:22:04.919Z,100641.53
2022-08-23T07:24:33.754Z,100632.81
2022-08-23T07:27:06.694Z,100631.97
2022-08-23T07:29:36.686Z,100633.06
2022-08-23T07:32:04.266Z,100629.78
2022-08-23T07:34:31.370Z,100631.34
2022-08-23T07:36:58.186Z,100630.28
2022-08-23T07:39:26.502Z,100628.56
2022-08-23T07:41:53.384Z,100630.28
2022-08-23T07:44:21.136Z,100625.84
2022-08-23T07:46:54.305Z,100625.78
2022-08-23T07:49:21.293Z,100627.53
2022-08-23T07:51:50.681Z,100623.22
2022-08-23T07:54:21.236Z,100630.94
2022-08-23T07:56:48.287Z,100629.72
2022-08-23T07:59:15.481Z,100629.94
2022-08-23T08:01:44.439Z,100626.03
2022-08-23T08:04:12.526Z,100631.13
2022-08-23T08:06:43.832Z,100637.81
2022-08-23T08:09:12.677Z,100640.25
2022-08-23T08:11:47.268Z,100643.84
2022-08-23T08:14:16.216Z,100643.88
2022-08-23T08:16:47.923Z,100650.78
2022-08-23T08:19:18.799Z,100655.66
2022-08-23T08:21:48.230Z,100648.84
2022-08-23T08:24:16.646Z,100654.31
2022-08-23T08:26:45.344Z,100660.50
2022-08-23T08:29:13.952Z,100653.41
2022-08-23T08:31:43.405Z,100652.69
2022-08-23T08:34:10.557Z,100655.72
2022-08-23T08:36:58.690Z,100665.16
2022-08-23T08:39:33.765Z,100662.53
2022-08-23T08:42:12.525Z,100660.81
2022-08-23T08:44:51.707Z,100650.34
2022-08-23T08:47:22.513Z,100660.91
2022-08-23T08:50:18.592Z,100658.50
2022-08-23T08:53:13.494Z,100672.94
2022-08-23T08:55:50.284Z,100670.94
2022-08-23T08:58:50.760Z,100670.56
2022-08-23T09:01:20.004Z,100669.56
2022-08-23T09:03:48.459Z,100666.78
2022-08-23T09:06:32.968Z,100675.13
2022-08-23T09:09:46.901Z,100671.97
2022-08-23T09:12:49.496Z,100667.25
2022-08-23T09:16:10.084Z,100668.38
2022-08-23T09:18:38.176Z,100679.53
2022-08-23T09:21:08.612Z,100680.56
2022-08-23T09:23:45.670Z,100661.75
2022-08-23T09:26:22.149Z,100659.25
2022-08-23T09:29:03.948Z,100657.16
2022-08-23T09:31:52.393Z,100662.78
2022-08-23T09:34:34.848Z,100662.41
2022-08-23T09:37:14.394Z,100659.81
2022-08-23T09:39:47.246Z,100653.59
2022-08-23T09:42:38.169Z,100655.22
2022-08-23T09:45:39.680Z,100663.56
2022-08-23T09:48:12.847Z,100661.03
2022-08-23T09:50:47.787Z,100664.31
2022-08-23T09:53:24.545Z,100661.38
2022-08-23T09:55:57.926Z,100652.91
2022-08-23T09:58:43.128Z,100653.03
2022-08-23T10:01:16.523Z,100640.88
2022-08-23T10:03:44.356Z,100636.91
2022-08-23T10:06:30.961Z,100641.00
2022-08-23T10:09:03.725Z,100637.66
2022-08-23T10:11:37.737Z,100633.28
2022-08-23T10:14:05.015Z,100633.78
2022-08-23T10:16:54.843Z,100629.59
2022-08-23T10:19:54.643Z,100624.88
2022-08-23T10:22:28.633Z,100624.63
2022-08-23T10:25:12.390Z,100603.00
2022-08-23T10:28:14.699Z,100601.00
2022-08-23T10:31:15.303Z,100596.91
2022-08-23T10:33:48.651Z,100605.09
2022-08-23T10:36:54.307Z,100589.06
2022-08-23T10:42:06.347Z,100586.53
2022-08-23T10:44:35.424Z,100588.09
2022-08-23T10:47:27.993Z,100596.84
2022-08-23T10:49:58.572Z,100590.94
2022-08-23T10:52:34.867Z,100583.91
2022-08-23T10:55:34.762Z,100580.41
2022-08-23T10:58:07.285Z,100587.44
2022-08-23T11:00:35.453Z,100582.31
2022-08-23T11:03:43.360Z,100578.47
2022-08-23T11:06:37.674Z,100576.31
2022-08-23T11:09:17.856Z,100578.91
2022-08-23T11:12:27.520Z,100570.94
2022-08-23T11:15:12.104Z,100559.41
2022-08-23T11:17:50.546Z,100571.19
2022-08-23T11:20:51.598Z,100563.50
2022-08-23T11:23:43.403Z,100561.97
2022-08-23T11:26:22.411Z,100555.91
2022-08-23T11:28:52.191Z,100561.03
2022-08-23T11:31:35.995Z,100560.56
2022-08-23T11:34:29.580Z,100560.06
2022-08-23T11:37:18.531Z,100554.81
2022-08-23T11:40:00.572Z,100549.78
2022-08-23T11:42:42.581Z,100560.44
2022-08-23T11:45:31.419Z,100564.31
2022-08-23T11:48:23.116Z,100558.00
2022-08-23T11:51:08.260Z,100558.44
2022-08-23T11:53:58.746Z,100558.44
2022-08-23T11:56:51.391Z,100549.88
2022-08-23T11:59:58.475Z,100547.22
2022-08-23T12:03:06.693Z,100550.03
2022-08-23T12:06:02.633Z,100558.25
2022-08-23T12:08:46.571Z,100550.06
2022-08-23T12:11:17.093Z,100552.38
2022-08-23T12:13:56.279Z,100539.41
2022-08-23T12:16:24.079Z,100537.28
2022-08-23T12:18:51.289Z,100533.81
2022-08-23T12:21:22.590Z,100539.97
2022-08-23T12:23:54.911Z,100533.44
2022-08-23T12:26:42.682Z,100541.56
2022-08-23T12:29:37.649Z,100537.13
2022-08-23T12:32:42.098Z,100542.78
2022-08-23T12:35:23.783Z,100531.38
2022-08-23T12:38:05.028Z,100534.78
2022-08-23T12:40:45.153Z,100526.13
2022-08-23T12:43:23.648Z,100531.13
2022-08-23T12:45:57.648Z,100529.22
2022-08-23T12:48:32.499Z,100531.91
2022-08-23T12:51:12.874Z,100528.00
2022-08-23T12:53:45.485Z,100522.88
2022-08-23T12:56:31.725Z,100522.09
2022-08-23T12:59:04.992Z,100528.44
2022-08-23T13:01:37.207Z,100513.41
2022-08-23T13:04:13.148Z,100527.50
2022-08-23T13:06:52.496Z,100519.03
2022-08-23T13:09:25.361Z,100519.88
2022-08-23T13:11:53.139Z,100514.41
2022-08-23T13:14:40.029Z,100520.34
2022-08-23T13:17:31.564Z,100520.44
2022-08-23T13:20:01.171Z,100513.84
2022-08-23T13:22:30.958Z,100510.66
2022-08-23T13:25:36.987Z,100509.47
2022-08-23T13:28:27.184Z,100510.38
2022-08-23T13:31:05.390Z,100510.94
2022-08-23T13:33:32.502Z,100510.31
2022-08-23T13:36:21.733Z,100505.50
2022-08-23T13:38:49.686Z,100496.50
2022-08-23T13:41:39.192Z,100495.69
2022-08-23T13:44:09.792Z,100508.41
2022-08-23T13:46:46.585Z,100503.59
2022-08-23T13:49:36.706Z,100495.22
2022-08-23T13:54:58.160Z,100488.56
2022-08-23T13:57:29.578Z,100494.50
2022-08-23T14:00:00.417Z,100491.09
2022-08-23T14:02:28.614Z,100491.59
2022-08-23T14:04:55.661Z,100489.19
2022-08-23T14:07:22.803Z,100486.81
2022-08-23T14:09:54.454Z,100487.03
2022-08-23T14:12:27.572Z,100492.97
2022-08-23T14:14:56.580Z,100491.09
2022-08-23T14:17:23.546Z,100484.56
2022-08-23T14:22:37.391Z,100490.56
2022-08-23T14:25:06.389Z,100482.41
2022-08-23T14:27:34.392Z,100487.25
2022-08-23T14:30:01.630Z,100482.94
2022-08-23T14:32:28.630Z,100484.47
2022-08-23T14:34:55.852Z,100488.53
2022-08-23T14:40:10.566Z,100494.44
2022-08-23T14:42:37.554Z,100483.75
2022-08-23T14:45:05.751Z,100483.75
2022-08-23T14:47:35.484Z,100479.97
2022-08-23T14:50:06.659Z,100483.75
2022-08-23T14:52:36.224Z,100482.88
2022-08-23T14:55:03.424Z,100478.84
2022-08-23T14:57:30.337Z,100481.84
2022-08-23T14:59:57.182Z,100476.44
2022-08-23T15:02:26.714Z,100478.03
2022-08-23T15:04:55.676Z,100476.09
2022-08-23T15:07:22.886Z,100476.56
2022-08-23T15:09:54.345Z,100484.88
2022-08-23T15:15:22.133Z,100478.78
2022-08-23T15:17:59.297Z,100478.06
2022-08-23T15:20:31.158Z,100470.22
2022-08-23T15:22:58.676Z,100465.28
2022-08-23T15:25:29.077Z,100467.72
2022-08-23T15:27:56.726Z,100466.88
2022-08-23T15:30:24.530Z,100471.19
2022-08-23T15:32:56.647Z,100467.41
2022-08-23T15:35:25.795Z,100458.22
2022-08-23T15:37:54.828Z,100463.09
2022-08-23T15:40:23.684Z,100465.78
2022-08-23T15:42:50.674Z,100461.97
2022-08-23T15:45:18.189Z,100464.19
2022-08-23T15:47:55.518Z,100460.22
2022-08-23T15:50:28.429Z,100458.06
2022-08-23T15:52:55.683Z,100462.31
2022-08-23T15:55:23.959Z,100463.16
2022-08-23T15:57:53.331Z,100458.78
2022-08-23T16:00:22.881Z,100464.06
2022-08-23T16:03:20.275Z,100467.13
2022-08-23T16:05:41.099Z,100465.28
2022-08-23T16:08:15.807Z,100462.84
2022-08-23T16:10:42.771Z,100454.81
2022-08-23T16:13:09.799Z,100462.69
2022-08-23T16:15:39.468Z,100455.53
2022-08-23T16:18:07.011Z,100459.88
2022-08-23T16:20:33.925Z,100456.53
2022-08-23T16:23:01.046Z,100454.41
2022-08-23T16:25:28.092Z,100454.41
2022-08-23T16:27:54.969Z,100457.03
2022-08-23T16:30:21.963Z,100452.66
2022-08-23T16:32:48.945Z,100455.59
2022-08-23T16:35:16.248Z,100451.19
2022-08-23T16:37:43.102Z,100452.53
2022-08-23T16:40:11.102Z,100461.19
2022-08-23T16:42:38.017Z,100452.56
2022-08-23T16:45:06.472Z,100457.41
2022-08-23T16:47:40.154Z,100455.91
2022-08-23T16:50:07.769Z,100458.94
2022-08-23T16:52:35.843Z,100462.47
2022-08-23T16:55:07.434Z,100465.53
2022-08-23T16:57:34.560Z,100466.53
2022-08-23T17:00:02.166Z,100471.25
2022-08-23T17:02:36.646Z,100459.69
2022-08-23T17:05:11.603Z,100472.78
2022-08-23T17:07:39.382Z,100477.00
2022-08-23T17:10:08.949Z,100465.75
2022-08-23T17:12:40.708Z,100468.75
2022-08-23T17:15:15.583Z,100461.56
2022-08-23T17:17:46.833Z,100459.94
2022-08-23T17:20:14.835Z,100467.28
2022-08-23T17:22:43.011Z,100468.63
2022-08-23T17:25:11.688Z,100465.72
2022-08-23T17:27:45.457Z,100472.56
2022-08-23T17:30:17.012Z,100473.91
2022-08-23T17:32:44.566Z,100469.16
2022-08-23T17:35:15.074Z,100469.25
2022-08-23T17:37:42.960Z,100474.75
2022-08-23T17:40:15.188Z,100476.25
2022-08-23T17:42:43.875Z,100481.38
2022-08-23T17:45:12.327Z,100472.28
2022-08-23T17:47:39.416Z,100476.75
2022-08-23T17:50:08.232Z,100485.78
2022-08-23T17:52:35.205Z,100490.13
2022-08-23T17:55:02.090Z,100490.81
2022-08-23T17:57:29.887Z,100488.72
2022-08-23T18:00:00.478Z,100489.91
2022-08-23T18:02:28.069Z,100492.47
2022-08-23T18:04:55.016Z,100499.38
2022-08-23T18:07:22.137Z,100498.63
2022-08-23T18:09:49.024Z,100495.84
2022-08-23T18:12:16.437Z,100493.88
2022-08-23T18:14:43.368Z,100499.09
2022-08-23T18:17:10.237Z,100504.97
2022-08-23T18:19:37.091Z,100506.94
2022-08-23T18:22:04.044Z,100511.72
2022-08-23T18:24:31.759Z,100506.47
2022-08-23T18:27:21.220Z,100509.84
2022-08-23T18:29:51.562Z,100517.75
2022-08-23T18:32:19.011Z,100524.06
2022-08-23T18:34:46.317Z,100519.38
2022-08-23T18:37:16.854Z,100526.00
2022-08-23T18:39:44.650Z,100528.31
2022-08-23T18:42:12.094Z,100525.97
2022-08-23T18:44:39.031Z,100534.34
2022-08-23T18:47:06.961Z,100534.94
2022-08-23T18:49:35.192Z,100529.66
2022-08-23T18:52:02.723Z,100540.16
2022-08-23T18:54:33.471Z,100539.31
2022-08-23T18:57:01.800Z,100542.47
2022-08-23T18:59:28.759Z,100545.84
2022-08-23T19:01:56.167Z,100550.63
2022-08-23T19:04:23.284Z,100556.31
2022-08-23T19:06:54.249Z,100560.94
2022-08-23T19:09:21.637Z,100555.56
2022-08-23T19:11:48.886Z,100559.19
2022-08-23T19:14:15.809Z,100562.94
2022-08-23T19:16:47.938Z,100565.25
2022-08-23T19:19:16.228Z,100560.34
2022-08-23T19:21:43.184Z,100568.03
2022-08-23T19:24:10.081Z,100570.75
2022-08-23T19:26:37.323Z,100574.34
2022-08-23T19:29:09.100Z,100579.69
2022-08-23T19:31:42.616Z,100576.19
2022-08-23T19:34:10.451Z,100579.91
2022-08-23T19:36:46.424Z,100574.41
2022-08-23T19:39:16.740Z,100579.53
2022-08-23T19:41:44.758Z,100579.97
2022-08-23T19:44:11.915Z,100578.78
2022-08-23T19:46:42.119Z,100582.97
2022-08-23T19:49:14.604Z,100591.47
2022-08-23T19:51:43.271Z,100592.50
2022-08-23T19:54:12.640Z,100589.22
2022-08-23T19:56:51.587Z,100587.19
2022-08-23T19:59:23.710Z,100587.19
2022-08-23T20:01:53.425Z,100594.88
2022-08-23T20:04:22.421Z,100593.81
2022-08-23T20:06:50.482Z,100601.25
2022-08-23T20:09:19.837Z,100605.50
2022-08-23T20:11:46.784Z,100608.81
2022-08-23T20:14:14.020Z,100607.03
2022-08-23T20:16:41.998Z,100602.28
2022-08-23T20:19:10.502Z,100604.28
2022-08-23T20:21:39.221Z,100600.00
2022-08-23T20:24:09.754Z,100604.72
2022-08-23T20:26:42.436Z,100611.50
2022-08-23T20:29:13.844Z,100610.31
2022-08-23T20:31:50.198Z,100609.72
2022-08-23T20:34:17.292Z,100608.31
2022-08-23T20:36:45.134Z,100610.56
2022-08-23T20:39:12.105Z,100614.13
2022-08-23T20:41:40.560Z,100615.44
2022-08-23T20:44:08.952Z,100606.19
2022-08-23T20:46:36.381Z,100602.69
2022-08-23T20:49:04.093Z,100602.91
2022-08-23T20:51:31.549Z,100603.19
2022-08-23T20:54:05.855Z,100605.25
2022-08-23T20:56:33.237Z,100614.59
2022-08-23T20:59:00.212Z,100617.31
2022-08-23T21:01:27.819Z,100623.53
2022-08-23T21:03:54.851Z,100626.41
2022-08-23T21:06:28.901Z,100629.13
2022-08-23T21:08:59.106Z,100622.94
2022-08-23T21:11:28.704Z,100633.66
2022-08-23T21:13:57.220Z,100636.66
2022-08-23T21:16:24.349Z,100636.03
2022-08-23T21:18:53.891Z,100630.09
2022-08-23T21:21:24.283Z,100635.66
2022-08-23T21:23:51.511Z,100632.56
2022-08-23T21:26:18.935Z,100635.88
2022-08-23T21:28:46.277Z,100639.94
2022-08-23T21:31:23.198Z,100641.69
2022-08-23T21:33:51.341Z,100642.72
2022-08-23T21:36:20.293Z,100647.06
2022-08-23T21:38:50.059Z,100643.19
2022-08-23T21:41:38.818Z,100644.16
2022-08-23T21:44:11.289Z,100644.16
2022-08-23T21:46:38.949Z,100646.47
2022-08-23T21:49:07.123Z,100643.78
2022-08-23T21:51:35.005Z,100647.09
2022-08-23T21:54:02.817Z,100648.13
2022-08-23T21:56:30.093Z,100647.31
2022-08-23T21:59:03.213Z,100642.16
2022-08-23T22:01:35.396Z,100645.44
2022-08-23T22:04:04.735Z,100633.97
2022-08-23T22:06:32.173Z,100637.66
2022-08-23T22:08:59.078Z,100631.53
2022-08-23T22:11:26.274Z,100638.09
2022-08-23T22:13:54.167Z,100632.13
2022-08-23T22:16:21.636Z,100627.81
2022-08-23T22:18:48.834Z,100635.63
2022-08-23T22:21:15.699Z,100629.66
2022-08-23T22:23:44.788Z,100627.59
2022-08-23T22:26:13.983Z,100625.75
2022-08-23T22:28:44.683Z,100634.00
2022-08-23T22:31:15.051Z,100632.75
2022-08-23T22:33:43.267Z,100631.31
2022-08-23T22:36:19.175Z,100638.34
2022-08-23T22:38:47.276Z,100637.50
2022-08-23T22:41:23.911Z,100642.00
2022-08-23T22:43:57.341Z,100644.28
2022-08-23T22:46:25.511Z,100644.66
2022-08-23T22:48:53.723Z,100641.38
2022-08-23T22:51:34.875Z,100638.69
2022-08-23T22:54:08.945Z,100641.81
2022-08-23T22:56:50.632Z,100643.84
2022-08-23T22:59:20.575Z,100629.06
2022-08-23T23:01:54.467Z,100636.44
2022-08-23T23:04:26.313Z,100639.34
2022-08-23T23:06:54.622Z,100637.47
2022-08-23T23:09:22.048Z,100642.19
2022-08-23T23:11:49.394Z,100643.41
2022-08-23T23:14:18.944Z,100645.25
2022-08-23T23:16:49.081Z,100642.34
2022-08-23T23:19:36.002Z,100654.47
2022-08-23T23:22:03.542Z,100653.44
2022-08-23T23:24:38.056Z,100659.00
2022-08-23T23:27:05.580Z,100652.84
2022-08-23T23:29:32.690Z,100658.78
2022-08-23T23:31:59.908Z,100655.28
2022-08-23T23:34:28.185Z,100659.72
2022-08-23T23:36:58.944Z,100655.00
2022-08-23T23:39:27.513Z,100656.03
2022-08-23T23:41:54.701Z,100655.19
2022-08-23T23:44:30.757Z,100657.63
2022-08-23T23:47:01.342Z,100657.63
2022-08-23T23:49:32.315Z,100652.09
2022-08-23T23:51:59.866Z,100650.84
2022-08-23T23:54:26.781Z,100653.28
2022-08-23T23:56:53.686Z,100653.03
2022-08-23T23:59:20.632Z,100652.63
